Terminal Aerodrome Forecast
Issued by NWS Portland, ME

Home | Current Version | Previous Version | Text Only | Print | Product List | Glossary On
Versions: 1 2 3 4 5 6 7 8 9 10 11 12 13 14 15 16 17 18 19 20
282
FTUS41 KGYX 110520
TAFCON
TAF
KCON 110520Z 1106/1206 00000KT P6SM SKC
     FM111500 26006KT P6SM BKN250
     FM120300 16003KT 1 1/2SM -SN BR OVC020=

USA.gov is the U.S. government's official web portal to all federal, state and local government web resources and services.